sensor_id;sensor_type;location;lat;lon;timestamp;pressure;altitude;pressure_sealevel;temperature;humidity
54951;BME280;40854;45.282;4.302;2023-02-14T09:33:35;93527.81;;;17.73;34.18
54951;BME280;40854;45.282;4.302;2023-02-14T09:36:20;93524.28;;;17.89;33.03
54951;BME280;40854;45.282;4.302;2023-02-14T09:39:04;93519.16;;;18.04;33.68
54951;BME280;40854;45.282;4.302;2023-02-14T09:46:42;93518.53;;;18.51;31.53
54951;BME280;40854;45.282;4.302;2023-02-14T09:49:15;93522.41;;;18.65;31.76
54951;BME280;40854;45.282;4.302;2023-02-14T09:51:46;93523.31;;;18.76;31.46
54951;BME280;40854;45.282;4.302;2023-02-14T09:54:20;93526.31;;;18.85;31.53
54951;BME280;40854;45.282;4.302;2023-02-14T09:56:56;93518.41;;;18.95;31.92
54951;BME280;40854;45.282;4.302;2023-02-14T09:59:38;93516.88;;;19.04;31.77
54951;BME280;40854;45.282;4.302;2023-02-14T10:04:44;93506.59;;;19.18;31.45
54951;BME280;40854;45.282;4.302;2023-02-14T10:07:17;93511.44;;;19.26;31.48
54951;BME280;40854;45.282;4.302;2023-02-14T10:12:32;93515.25;;;19.40;31.56
54951;BME280;40854;45.282;4.302;2023-02-14T10:15:06;93501.44;;;19.43;31.08
54951;BME280;40854;45.282;4.302;2023-02-14T10:20:28;93488.69;;;19.45;31.07
54951;BME280;40854;45.282;4.302;2023-02-14T10:23:21;93513.00;;;19.59;30.63
54951;BME280;40854;45.282;4.302;2023-02-14T10:26:04;93502.63;;;19.62;30.99
54951;BME280;40854;45.282;4.302;2023-02-14T10:28:49;93503.44;;;19.63;30.70
54951;BME280;40854;45.282;4.302;2023-02-14T10:32:07;93495.75;;;19.66;31.05
54951;BME280;40854;45.282;4.302;2023-02-14T10:36:55;93506.94;;;19.73;31.26
54951;BME280;40854;45.282;4.302;2023-02-14T10:44:35;93488.38;;;19.84;31.19
54951;BME280;40854;45.282;4.302;2023-02-14T10:47:25;93479.59;;;19.88;31.02
54951;BME280;40854;45.282;4.302;2023-02-14T10:50:22;93482.78;;;19.90;31.19
54951;BME280;40854;45.282;4.302;2023-02-14T10:53:15;93482.25;;;19.88;31.03
54951;BME280;40854;45.282;4.302;2023-02-14T10:58:14;93480.69;;;19.97;31.50
54951;BME280;40854;45.282;4.302;2023-02-14T11:03:26;93474.31;;;20.03;31.63
54951;BME280;40854;45.282;4.302;2023-02-14T11:05:52;93467.94;;;20.04;31.66
54951;BME280;40854;45.282;4.302;2023-02-14T11:08:24;93471.66;;;20.08;32.09
54951;BME280;40854;45.282;4.302;2023-02-14T11:10:54;93466.09;;;20.10;32.20
54951;BME280;40854;45.282;4.302;2023-02-14T11:13:35;93459.16;;;20.14;32.04
54951;BME280;40854;45.282;4.302;2023-02-14T11:16:04;93458.66;;;20.17;32.10
54951;BME280;40854;45.282;4.302;2023-02-14T11:18:31;93453.56;;;20.16;31.88
54951;BME280;40854;45.282;4.302;2023-02-14T11:21:10;93459.72;;;20.21;31.88
54951;BME280;40854;45.282;4.302;2023-02-14T11:23:39;93453.06;;;20.24;32.59
54951;BME280;40854;45.282;4.302;2023-02-14T11:26:19;93448.53;;;20.29;32.34
54951;BME280;40854;45.282;4.302;2023-02-14T11:29:09;93449.63;;;20.33;32.25
54951;BME280;40854;45.282;4.302;2023-02-14T11:31:39;93449.66;;;20.38;32.15
54951;BME280;40854;45.282;4.302;2023-02-14T11:36:46;93446.47;;;20.41;32.00
54951;BME280;40854;45.282;4.302;2023-02-14T11:39:33;93447.78;;;20.44;32.18
54951;BME280;40854;45.282;4.302;2023-02-14T11:42:04;93446.72;;;20.45;31.62
54951;BME280;40854;45.282;4.302;2023-02-14T11:44:32;93439.28;;;20.47;31.78
54951;BME280;40854;45.282;4.302;2023-02-14T11:50:37;93435.81;;;20.67;30.84
54951;BME280;40854;45.282;4.302;2023-02-14T11:52:51;93430.22;;;20.73;31.04
54951;BME280;40854;45.282;4.302;2023-02-14T11:55:30;93435.53;;;20.79;31.52
54951;BME280;40854;45.282;4.302;2023-02-14T11:58:00;93420.31;;;20.84;31.01
54951;BME280;40854;45.282;4.302;2023-02-14T12:00:28;93421.38;;;20.88;30.55
54951;BME280;40854;45.282;4.302;2023-02-14T12:02:58;93429.88;;;20.95;30.57
54951;BME280;40854;45.282;4.302;2023-02-14T12:05:30;93414.69;;;21.01;30.78
54951;BME280;40854;45.282;4.302;2023-02-14T12:07:59;93415.47;;;21.06;30.46
54951;BME280;40854;45.282;4.302;2023-02-14T12:15:27;93403.16;;;21.21;30.61
54951;BME280;40854;45.282;4.302;2023-02-14T12:24:01;93400.75;;;21.34;30.48
54951;BME280;40854;45.282;4.302;2023-02-14T12:26:35;93395.69;;;21.33;30.45
54951;BME280;40854;45.282;4.302;2023-02-14T12:31:36;93390.09;;;21.34;30.67
54951;BME280;40854;45.282;4.302;2023-02-14T12:34:03;93382.31;;;21.43;30.81
54951;BME280;40854;45.282;4.302;2023-02-14T12:41:52;93368.34;;;21.61;29.81
54951;BME280;40854;45.282;4.302;2023-02-14T12:44:43;93363.53;;;21.68;30.48
54951;BME280;40854;45.282;4.302;2023-02-14T13:00:29;93334.47;;;22.06;29.75
54951;BME280;40854;45.282;4.302;2023-02-14T13:16:16;93320.41;;;22.58;29.48
54951;BME280;40854;45.282;4.302;2023-02-14T13:18:56;93309.28;;;22.75;29.05
54951;BME280;40854;45.282;4.302;2023-02-14T13:21:32;93311.09;;;22.85;29.28
54951;BME280;40854;45.282;4.302;2023-02-14T13:24:25;93311.50;;;22.97;28.95
54951;BME280;40854;45.282;4.302;2023-02-14T13:26:57;93305.81;;;23.04;28.75
54951;BME280;40854;45.282;4.302;2023-02-14T13:29:40;93317.19;;;23.14;28.82
54951;BME280;40854;45.282;4.302;2023-02-14T13:32:13;93312.00;;;23.23;28.51
54951;BME280;40854;45.282;4.302;2023-02-14T13:34:45;93320.78;;;23.28;27.91
54951;BME280;40854;45.282;4.302;2023-02-14T13:37:18;93299.53;;;23.13;28.45
54951;BME280;40854;45.282;4.302;2023-02-14T13:39:50;93305.13;;;23.17;28.26
54951;BME280;40854;45.282;4.302;2023-02-14T13:48:14;93301.31;;;23.23;26.04
54951;BME280;40854;45.282;4.302;2023-02-14T13:58:46;93293.66;;;23.35;23.98
54951;BME280;40854;45.282;4.302;2023-02-14T14:01:38;93291.09;;;23.44;23.48
54951;BME280;40854;45.282;4.302;2023-02-14T14:17:36;93296.22;;;24.02;22.34
54951;BME280;40854;45.282;4.302;2023-02-14T14:22:54;93281.50;;;23.99;22.05
54951;BME280;40854;45.282;4.302;2023-02-14T14:25:36;93281.22;;;24.01;22.00
54951;BME280;40854;45.282;4.302;2023-02-14T14:28:16;93281.50;;;23.99;21.58
54951;BME280;40854;45.282;4.302;2023-02-14T14:30:43;93280.94;;;24.02;21.71
54951;BME280;40854;45.282;4.302;2023-02-14T14:35:56;93270.22;;;24.02;21.46
54951;BME280;40854;45.282;4.302;2023-02-14T14:38:23;93273.41;;;24.04;21.35
54951;BME280;40854;45.282;4.302;2023-02-14T14:40:50;93261.81;;;24.09;21.63
54951;BME280;40854;45.282;4.302;2023-02-14T14:45:49;93269.47;;;24.15;21.85
54951;BME280;40854;45.282;4.302;2023-02-14T14:48:40;93270.75;;;24.18;22.04
54951;BME280;40854;45.282;4.302;2023-02-14T14:51:36;93270.19;;;24.21;22.75
54951;BME280;40854;45.282;4.302;2023-02-14T14:54:17;93269.03;;;24.27;22.50
54951;BME280;40854;45.282;4.302;2023-02-14T14:56:54;93266.06;;;24.28;22.35
54951;BME280;40854;45.282;4.302;2023-02-14T14:59:30;93260.91;;;24.32;22.98
54951;BME280;40854;45.282;4.302;2023-02-14T15:01:58;93262.78;;;24.32;23.58
54951;BME280;40854;45.282;4.302;2023-02-14T15:04:34;93263.44;;;24.56;23.53
54951;BME280;40854;45.282;4.302;2023-02-14T15:07:27;93258.13;;;29.19;19.22
54951;BME280;40854;45.282;4.302;2023-02-14T15:09:54;93260.84;;;29.19;18.90
54951;BME280;40854;45.282;4.302;2023-02-14T15:12:22;93257.16;;;26.91;21.76
54951;BME280;40854;45.282;4.302;2023-02-14T15:15:11;93252.63;;;25.93;23.02
54951;BME280;40854;45.282;4.302;2023-02-14T15:17:39;93254.50;;;25.56;23.34
54951;BME280;40854;45.282;4.302;2023-02-14T15:20:12;93255.31;;;25.43;23.15
54951;BME280;40854;45.282;4.302;2023-02-14T15:25:12;93260.31;;;25.36;24.00
54951;BME280;40854;45.282;4.302;2023-02-14T15:27:41;93255.63;;;25.28;23.79
54951;BME280;40854;45.282;4.302;2023-02-14T15:32:50;93249.59;;;25.09;24.26
54951;BME280;40854;45.282;4.302;2023-02-14T15:35:22;93244.31;;;25.04;24.45
54951;BME280;40854;45.282;4.302;2023-02-14T15:37:50;93245.72;;;25.01;24.49
54951;BME280;40854;45.282;4.302;2023-02-14T15:40:23;93246.09;;;24.95;24.63
54951;BME280;40854;45.282;4.302;2023-02-14T15:42:51;93251.25;;;24.91;24.62
54951;BME280;40854;45.282;4.302;2023-02-14T15:47:57;93243.22;;;24.91;25.18
54951;BME280;40854;45.282;4.302;2023-02-14T15:50:35;93242.13;;;24.92;25.11
54951;BME280;40854;45.282;4.302;2023-02-14T15:56:01;93244.13;;;25.00;24.62
54951;BME280;40854;45.282;4.302;2023-02-14T15:58:29;93247.72;;;25.73;23.30
54951;BME280;40854;45.282;4.302;2023-02-14T16:01:00;93241.84;;;26.38;22.20
54951;BME280;40854;45.282;4.302;2023-02-14T16:03:29;93250.19;;;27.29;21.06
54951;BME280;40854;45.282;4.302;2023-02-14T16:05:58;93248.38;;;27.73;21.02
54951;BME280;40854;45.282;4.302;2023-02-14T16:10:59;93244.72;;;26.41;22.19
54951;BME280;40854;45.282;4.302;2023-02-14T16:16:02;93251.00;;;25.56;23.40
54951;BME280;40854;45.282;4.302;2023-02-14T16:18:39;93252.63;;;25.43;24.10
54951;BME280;40854;45.282;4.302;2023-02-14T16:23:37;93251.16;;;25.23;24.40
54951;BME280;40854;45.282;4.302;2023-02-14T16:26:05;93250.75;;;25.30;24.00
54951;BME280;40854;45.282;4.302;2023-02-14T16:28:32;93243.94;;;25.96;23.32
54951;BME280;40854;45.282;4.302;2023-02-14T16:31:00;93249.97;;;26.02;23.30
54951;BME280;40854;45.282;4.302;2023-02-14T16:33:34;93251.47;;;25.85;23.47
54951;BME280;40854;45.282;4.302;2023-02-14T16:36:26;93245.34;;;25.71;23.58
54951;BME280;40854;45.282;4.302;2023-02-14T16:38:53;93252.50;;;25.98;23.34
54951;BME280;40854;45.282;4.302;2023-02-14T16:41:23;93250.63;;;26.52;23.14
54951;BME280;40854;45.282;4.302;2023-02-14T16:43:50;93247.56;;;26.67;22.45
54951;BME280;40854;45.282;4.302;2023-02-14T16:46:20;93246.38;;;26.06;23.48
54951;BME280;40854;45.282;4.302;2023-02-14T16:48:46;93250.47;;;25.81;24.02
54951;BME280;40854;45.282;4.302;2023-02-14T16:51:17;93255.84;;;26.26;23.17
54951;BME280;40854;45.282;4.302;2023-02-14T16:53:44;93250.25;;;26.98;22.99
54951;BME280;40854;45.282;4.302;2023-02-14T16:56:16;93257.53;;;26.98;22.25
54951;BME280;40854;45.282;4.302;2023-02-14T16:58:42;93250.53;;;26.35;22.91
54951;BME280;40854;45.282;4.302;2023-02-14T17:01:08;93258.66;;;25.63;23.66
54951;BME280;40854;45.282;4.302;2023-02-14T17:03:34;93249.50;;;25.14;24.41
54951;BME280;40854;45.282;4.302;2023-02-14T17:06:00;93249.25;;;24.83;24.87
54951;BME280;40854;45.282;4.302;2023-02-14T17:08:27;93250.44;;;24.63;25.15
54951;BME280;40854;45.282;4.302;2023-02-14T17:10:55;93248.72;;;24.40;25.34
54951;BME280;40854;45.282;4.302;2023-02-14T17:13:24;93256.44;;;24.27;25.87
54951;BME280;40854;45.282;4.302;2023-02-14T17:15:52;93259.03;;;24.14;25.73
54951;BME280;40854;45.282;4.302;2023-02-14T17:18:20;93256.81;;;24.02;26.34
54951;BME280;40854;45.282;4.302;2023-02-14T17:20:48;93255.47;;;23.86;26.50
54951;BME280;40854;45.282;4.302;2023-02-14T17:23:13;93266.03;;;23.77;26.75
54951;BME280;40854;45.282;4.302;2023-02-14T17:25:40;93264.09;;;23.64;26.60
54951;BME280;40854;45.282;4.302;2023-02-14T17:28:06;93262.84;;;23.56;26.49
54951;BME280;40854;45.282;4.302;2023-02-14T17:30:31;93268.25;;;23.51;26.54
54951;BME280;40854;45.282;4.302;2023-02-14T17:32:57;93268.91;;;23.43;26.76
54951;BME280;40854;45.282;4.302;2023-02-14T17:35:22;93268.78;;;23.35;26.47
54951;BME280;40854;45.282;4.302;2023-02-14T17:37:48;93275.00;;;23.30;27.08
54951;BME280;40854;45.282;4.302;2023-02-14T17:40:14;93271.34;;;23.21;27.26
54951;BME280;40854;45.282;4.302;2023-02-14T17:42:40;93279.16;;;23.17;27.51
54951;BME280;40854;45.282;4.302;2023-02-14T17:45:07;93271.47;;;23.11;27.51
54951;BME280;40854;45.282;4.302;2023-02-14T17:47:33;93277.41;;;23.08;27.79
54951;BME280;40854;45.282;4.302;2023-02-14T17:49:59;93274.34;;;22.95;27.41
54951;BME280;40854;45.282;4.302;2023-02-14T17:52:27;93280.25;;;22.92;27.16
54951;BME280;40854;45.282;4.302;2023-02-14T17:54:54;93278.16;;;22.89;28.13
54951;BME280;40854;45.282;4.302;2023-02-14T17:57:20;93282.75;;;22.84;28.13
54951;BME280;40854;45.282;4.302;2023-02-14T17:59:45;93284.66;;;22.78;28.23
54951;BME280;40854;45.282;4.302;2023-02-14T18:02:11;93282.56;;;22.75;27.79
54951;BME280;40854;45.282;4.302;2023-02-14T18:04:37;93279.66;;;22.72;27.20
54951;BME280;40854;45.282;4.302;2023-02-14T18:07:04;93275.16;;;22.67;27.49
54951;BME280;40854;45.282;4.302;2023-02-14T18:09:30;93266.38;;;22.61;27.79
54951;BME280;40854;45.282;4.302;2023-02-14T18:11:56;93268.84;;;22.58;27.61
54951;BME280;40854;45.282;4.302;2023-02-14T18:14:22;93269.91;;;22.57;28.59
54951;BME280;40854;45.282;4.302;2023-02-14T18:16:49;93261.66;;;22.53;27.96
54951;BME280;40854;45.282;4.302;2023-02-14T18:19:15;93262.78;;;22.47;27.99
54951;BME280;40854;45.282;4.302;2023-02-14T18:21:43;93265.75;;;22.46;27.86
54951;BME280;40854;45.282;4.302;2023-02-14T18:24:10;93258.34;;;22.38;28.53
54951;BME280;40854;45.282;4.302;2023-02-14T18:26:38;93264.47;;;22.38;27.86
54951;BME280;40854;45.282;4.302;2023-02-14T18:29:05;93261.56;;;22.34;27.64
54951;BME280;40854;45.282;4.302;2023-02-14T18:31:36;93261.06;;;22.32;28.14
54951;BME280;40854;45.282;4.302;2023-02-14T18:34:03;93262.16;;;22.31;27.88
54951;BME280;40854;45.282;4.302;2023-02-14T18:36:29;93267.25;;;22.28;28.08
54951;BME280;40854;45.282;4.302;2023-02-14T18:38:57;93262.47;;;22.25;28.07
54951;BME280;40854;45.282;4.302;2023-02-14T18:41:24;93260.63;;;22.20;27.77
54951;BME280;40854;45.282;4.302;2023-02-14T18:43:50;93268.66;;;22.20;27.56
54951;BME280;40854;45.282;4.302;2023-02-14T18:46:28;93267.34;;;22.18;28.20
54951;BME280;40854;45.282;4.302;2023-02-14T18:48:56;93262.56;;;22.15;27.66
54951;BME280;40854;45.282;4.302;2023-02-14T18:51:25;93262.03;;;22.13;28.38
54951;BME280;40854;45.282;4.302;2023-02-14T18:53:52;93267.16;;;22.09;28.30
54951;BME280;40854;45.282;4.302;2023-02-14T18:56:25;93254.34;;;22.06;28.37
54951;BME280;40854;45.282;4.302;2023-02-14T18:58:59;93259.72;;;22.01;28.76
54951;BME280;40854;45.282;4.302;2023-02-14T19:01:27;93261.34;;;22.02;28.31
54951;BME280;40854;45.282;4.302;2023-02-14T19:03:54;93261.56;;;22.00;28.71
54951;BME280;40854;45.282;4.302;2023-02-14T19:06:21;93257.03;;;22.01;28.11
54951;BME280;40854;45.282;4.302;2023-02-14T19:08:47;93259.97;;;21.99;28.78
54951;BME280;40854;45.282;4.302;2023-02-14T19:11:16;93257.03;;;22.01;28.23
54951;BME280;40854;45.282;4.302;2023-02-14T19:13:52;93259.47;;;22.02;28.78
54951;BME280;40854;45.282;4.302;2023-02-14T19:16:21;93261.56;;;22.00;28.79
54951;BME280;40854;45.282;4.302;2023-02-14T19:18:48;93257.59;;;21.98;28.82
54951;BME280;40854;45.282;4.302;2023-02-14T19:21:23;93252.25;;;21.98;28.32
54951;BME280;40854;45.282;4.302;2023-02-14T19:23:51;93248.78;;;21.97;28.54
54951;BME280;40854;45.282;4.302;2023-02-14T19:26:20;93255.75;;;21.93;28.81
54951;BME280;40854;45.282;4.302;2023-02-14T19:28:47;93253.94;;;21.89;29.05
54951;BME280;40854;45.282;4.302;2023-02-14T19:31:14;93248.88;;;21.87;28.87
54951;BME280;40854;45.282;4.302;2023-02-14T19:33:43;93246.19;;;21.87;29.02
54951;BME280;40854;45.282;4.302;2023-02-14T19:36:11;93251.28;;;21.84;28.84
54951;BME280;40854;45.282;4.302;2023-02-14T19:38:44;93236.06;;;21.84;28.13
54951;BME280;40854;45.282;4.302;2023-02-14T19:43:44;93243.03;;;21.80;28.83
54951;BME280;40854;45.282;4.302;2023-02-14T19:46:14;93246.78;;;21.79;29.15
54951;BME280;40854;45.282;4.302;2023-02-14T19:48:40;93243.88;;;21.76;29.58
54951;BME280;40854;45.282;4.302;2023-02-14T19:51:07;93245.47;;;21.77;29.01
54951;BME280;40854;45.282;4.302;2023-02-14T19:53:33;93238.81;;;21.74;29.36
54951;BME280;40854;45.282;4.302;2023-02-14T19:55:59;93239.91;;;21.73;29.50
54951;BME280;40854;45.282;4.302;2023-02-14T19:58:25;93245.00;;;21.69;29.31
54951;BME280;40854;45.282;4.302;2023-02-14T20:00:58;93237.25;;;21.68;29.41
54951;BME280;40854;45.282;4.302;2023-02-14T20:03:25;93236.47;;;21.67;29.06
54951;BME280;40854;45.282;4.302;2023-02-14T20:05:50;93233.81;;;21.67;29.25
54951;BME280;40854;45.282;4.302;2023-02-14T20:08:17;93226.88;;;21.66;29.55
54951;BME280;40854;45.282;4.302;2023-02-14T20:10:43;93231.69;;;21.64;29.64
54951;BME280;40854;45.282;4.302;2023-02-14T20:13:09;93239.19;;;21.62;29.99
54951;BME280;40854;45.282;4.302;2023-02-14T20:15:36;93223.72;;;21.59;29.70
54951;BME280;40854;45.282;4.302;2023-02-14T20:18:02;93225.06;;;21.57;29.47
54951;BME280;40854;45.282;4.302;2023-02-14T20:20:28;93218.94;;;21.56;29.65
54951;BME280;40854;45.282;4.302;2023-02-14T20:23:14;93223.75;;;21.54;29.69
54951;BME280;40854;45.282;4.302;2023-02-14T20:25:40;93222.94;;;21.54;29.04
54951;BME280;40854;45.282;4.302;2023-02-14T20:28:05;93218.97;;;21.51;29.40
54951;BME280;40854;45.282;4.302;2023-02-14T20:30:31;93212.03;;;21.50;29.47
54951;BME280;40854;45.282;4.302;2023-02-14T20:32:56;93215.78;;;21.49;29.53
54951;BME280;40854;45.282;4.302;2023-02-14T20:35:22;93208.34;;;21.46;29.85
54951;BME280;40854;45.282;4.302;2023-02-14T20:37:47;93219.56;;;21.43;29.42
54951;BME280;40854;45.282;4.302;2023-02-14T20:40:13;93223.03;;;21.44;29.67
54951;BME280;40854;45.282;4.302;2023-02-14T20:42:39;93224.38;;;21.41;29.46
54951;BME280;40854;45.282;4.302;2023-02-14T20:45:05;93214.78;;;21.40;30.11
54951;BME280;40854;45.282;4.302;2023-02-14T20:47:30;93214.78;;;21.40;29.65
54951;BME280;40854;45.282;4.302;2023-02-14T20:49:56;93210.50;;;21.39;29.72
54951;BME280;40854;45.282;4.302;2023-02-14T20:52:21;93209.44;;;21.40;29.51
54951;BME280;40854;45.282;4.302;2023-02-14T20:54:47;93212.09;;;21.40;29.49
54951;BME280;40854;45.282;4.302;2023-02-14T20:57:12;93217.16;;;21.42;29.13
54951;BME280;40854;45.282;4.302;2023-02-14T20:59:38;93206.50;;;21.42;29.50
54951;BME280;40854;45.282;4.302;2023-02-14T21:02:08;93210.22;;;21.41;29.01
54951;BME280;40854;45.282;4.302;2023-02-14T21:04:34;93205.19;;;21.39;29.08
54951;BME280;40854;45.282;4.302;2023-02-14T21:07:00;93214.25;;;21.38;29.37
54951;BME280;40854;45.282;4.302;2023-02-14T21:09:29;93195.84;;;21.36;28.82
54951;BME280;40854;45.282;4.302;2023-02-14T21:11:54;93194.50;;;21.39;28.95
54951;BME280;40854;45.282;4.302;2023-02-14T21:14:20;93201.19;;;21.36;29.40
54951;BME280;40854;45.282;4.302;2023-02-14T21:16:45;93192.94;;;21.33;28.90
54951;BME280;40854;45.282;4.302;2023-02-14T21:19:11;93195.88;;;21.31;28.94
54951;BME280;40854;45.282;4.302;2023-02-14T21:21:38;93192.69;;;21.29;29.11
54951;BME280;40854;45.282;4.302;2023-02-14T21:24:09;93193.78;;;21.28;29.10
54951;BME280;40854;45.282;4.302;2023-02-14T21:26:36;93190.81;;;21.30;29.43
54951;BME280;40854;45.282;4.302;2023-02-14T21:29:02;93190.03;;;21.29;28.92
54951;BME280;40854;45.282;4.302;2023-02-14T21:31:28;93176.44;;;21.26;29.44
54951;BME280;40854;45.282;4.302;2023-02-14T21:33:56;93173.50;;;21.27;29.20
54951;BME280;40854;45.282;4.302;2023-02-14T21:36:24;93177.53;;;21.25;29.30
54951;BME280;40854;45.282;4.302;2023-02-14T21:38:50;93178.03;;;21.27;29.17
54951;BME280;40854;45.282;4.302;2023-02-14T21:41:19;93178.59;;;21.24;29.21
54951;BME280;40854;45.282;4.302;2023-02-14T21:43:48;93168.44;;;21.21;29.44
54951;BME280;40854;45.282;4.302;2023-02-14T21:46:18;93173.25;;;21.19;29.52
54951;BME280;40854;45.282;4.302;2023-02-14T21:48:44;93173.53;;;21.17;29.18
54951;BME280;40854;45.282;4.302;2023-02-14T21:51:30;93175.41;;;21.17;29.18
54951;BME280;40854;45.282;4.302;2023-02-14T21:53:56;93175.69;;;21.15;29.13
54951;BME280;40854;45.282;4.302;2023-02-14T21:56:24;93166.09;;;21.14;29.17
54951;BME280;40854;45.282;4.302;2023-02-14T21:58:52;93167.16;;;21.13;29.46
54951;BME280;40854;45.282;4.302;2023-02-14T22:01:24;93175.44;;;21.12;29.36
54951;BME280;40854;45.282;4.302;2023-02-14T22:03:50;93170.38;;;21.10;28.83
54951;BME280;40854;45.282;4.302;2023-02-14T22:06:16;93176.50;;;21.11;29.39
54951;BME280;40854;45.282;4.302;2023-02-14T22:08:42;93169.31;;;21.11;29.10
54951;BME280;40854;45.282;4.302;2023-02-14T22:11:12;93162.66;;;21.08;29.05
54951;BME280;40854;45.282;4.302;2023-02-14T22:13:38;93161.63;;;21.04;29.36
54951;BME280;40854;45.282;4.302;2023-02-14T22:16:06;93152.81;;;21.04;29.24
54951;BME280;40854;45.282;4.302;2023-02-14T22:18:32;93158.69;;;21.06;29.34
54951;BME280;40854;45.282;4.302;2023-02-14T22:21:04;93152.03;;;21.03;29.39
54951;BME280;40854;45.282;4.302;2023-02-14T22:23:31;93152.31;;;21.02;28.88
54951;BME280;40854;45.282;4.302;2023-02-14T22:28:38;93152.31;;;21.02;29.17
54951;BME280;40854;45.282;4.302;2023-02-14T22:31:04;93152.56;;;21.00;29.19
54951;BME280;40854;45.282;4.302;2023-02-14T22:33:30;93140.84;;;21.01;29.25
54951;BME280;40854;45.282;4.302;2023-02-14T22:35:56;93151.50;;;21.01;29.11
54951;BME280;40854;45.282;4.302;2023-02-14T22:38:24;93152.56;;;21.00;29.21
54951;BME280;40854;45.282;4.302;2023-02-14T22:40:50;93150.97;;;20.99;28.71
54951;BME280;40854;45.282;4.302;2023-02-14T22:43:16;93146.47;;;20.95;28.75
54951;BME280;40854;45.282;4.302;2023-02-14T22:45:41;93153.66;;;20.99;28.53
54951;BME280;40854;45.282;4.302;2023-02-14T22:48:07;93142.75;;;20.96;29.31
54951;BME280;40854;45.282;4.302;2023-02-14T22:50:32;93148.34;;;20.94;29.28
54951;BME280;40854;45.282;4.302;2023-02-14T22:53:02;93143.56;;;20.91;29.27
54951;BME280;40854;45.282;4.302;2023-02-14T22:55:29;93152.63;;;20.90;29.05
54951;BME280;40854;45.282;4.302;2023-02-14T22:57:55;93148.91;;;20.91;28.58
54951;BME280;40854;45.282;4.302;2023-02-14T23:00:21;93151.84;;;20.90;28.65
54951;BME280;40854;45.282;4.302;2023-02-14T23:02:47;93154.22;;;20.91;28.93
54951;BME280;40854;45.282;4.302;2023-02-14T23:05:13;93155.84;;;20.87;28.46
54951;BME280;40854;45.282;4.302;2023-02-14T23:07:39;93161.47;;;20.86;28.95
54951;BME280;40854;45.282;4.302;2023-02-14T23:10:06;93167.59;;;20.86;28.54
54951;BME280;40854;45.282;4.302;2023-02-14T23:12:32;93158.00;;;20.85;28.99
54951;BME280;40854;45.282;4.302;2023-02-14T23:15:16;93162.81;;;20.83;28.45
54951;BME280;40854;45.282;4.302;2023-02-14T23:18:00;93156.41;;;20.84;28.75
54951;BME280;40854;45.282;4.302;2023-02-14T23:20:45;93167.34;;;20.83;28.82
54951;BME280;40854;45.282;4.302;2023-02-14T23:23:30;93159.13;;;20.79;28.91
54951;BME280;40854;45.282;4.302;2023-02-14T23:25:56;93160.19;;;20.78;29.03
54951;BME280;40854;45.282;4.302;2023-02-14T23:28:22;93160.19;;;20.78;28.51
54951;BME280;40854;45.282;4.302;2023-02-14T23:30:47;93158.59;;;20.77;28.77
54951;BME280;40854;45.282;4.302;2023-02-14T23:33:13;93163.69;;;20.73;28.84
54951;BME280;40854;45.282;4.302;2023-02-14T23:35:38;93153.03;;;20.73;28.38
54951;BME280;40854;45.282;4.302;2023-02-14T23:38:04;93153.53;;;20.76;28.81
54951;BME280;40854;45.282;4.302;2023-02-14T23:40:29;93146.91;;;20.73;28.43
54951;BME280;40854;45.282;4.302;2023-02-14T23:43:15;93148.75;;;20.72;28.85
54951;BME280;40854;45.282;4.302;2023-02-14T23:45:40;93147.16;;;20.71;28.76
54951;BME280;40854;45.282;4.302;2023-02-14T23:48:06;93146.66;;;20.69;28.25
54951;BME280;40854;45.282;4.302;2023-02-14T23:50:31;93136.53;;;20.66;28.56
54951;BME280;40854;45.282;4.302;2023-02-14T23:52:57;93136.25;;;20.68;27.85
54951;BME280;40854;45.282;4.302;2023-02-14T23:55:23;93135.75;;;20.66;28.68
54951;BME280;40854;45.282;4.302;2023-02-14T23:57:48;93140.53;;;20.69;28.30
